• Join FlightAware (Why Join?)
  • Login
  • US Flag 
11:14AM EST


 

Airport Tracker/Info


-or-


 

Live Flight TrackerFlight Track Log ✈ KAL755 ✈ 24-Apr-2013 ✈ RKPC / CJU - RJGG / NGO

Flight Track Log - Related Links

Times and Time Zones

All times are in EDT time to prevent confusion due to time zone crossing. See the KAL755 flight status page for this flight to view local times or setup timezone preferences in your user account.

Time Position Orientation Groundspeed Altitude Reporting Facility
EDT Latitude Longitude Course Direction KTS MPH feet Rate Location/Type
12:55AM 33.6341 127.2075 78° East  Level Estimated
12:56AM 33.6581 127.3507 79° East  Level Estimated
12:57AM 33.6820 127.4939 79° East  Level Estimated
12:58AM 33.7058 127.6372 79° East  Level Estimated
12:59AM 33.7294 127.7806 79° East  Level Estimated
01:00AM 33.7528 127.9240 79° East  Level Estimated
01:01AM 33.7760 128.0676 79° East  Level Estimated
01:02AM 33.7991 128.2112 79° East  Level Estimated
01:03AM 33.8220 128.3549 79° East  Level Estimated
01:04AM 33.8447 128.4986 79° East  Level Estimated
01:05AM 33.8673 128.6425 79° East  Level Estimated
01:06AM 33.8897 128.7864 79° East  Level Estimated
01:07AM 33.9119 128.9304 79° East  Level Estimated
01:08AM 33.9340 129.0744 80° East  Level Estimated
01:09AM 33.9559 129.2186 80° East  Level Estimated
01:09AM 33.6330 128.7380 80° East 557 641 35,100  Level FlightAware
01:09AM 33.6590 128.9620 82° East 569 655 35,800 780 Climbing FlightAware
01:10AM 33.9776 129.3628 80° East  Level Estimated
01:10AM 33.6750 129.1050 82° East 573 659 36,300  Level FlightAware
01:11AM 33.6910 129.2530 83° East 580 667 36,700 480 Climbing FlightAware
01:12AM 33.7040 129.3670 82° East 585 673 37,000 180 Climbing FlightAware
01:12AM 33.7190 129.5120 83° East 592 681 37,000  Level FlightAware
01:13AM 33.7310 129.6280 83° East 596 686 37,000  Level FlightAware
01:14AM 33.7360 129.8790 89° East 594 684 37,000  Level FlightAware
01:15AM 33.7260 130.1270 93° East 599 689 37,000  Level FlightAware
01:16AM 33.7340 130.3120 87° East 600 690 37,000  Level FlightAware
01:18AM 33.7460 130.6050 87° East 599 689 37,000  Level FlightAware
01:19AM 33.7560 130.8390 87° East 593 682 37,000  Level FlightAware
01:20AM 33.7640 131.0680 88° East 591 680 37,000  Level FlightAware
01:21AM 33.7720 131.2940 87° East 590 679 37,000  Level FlightAware
01:23AM 33.7800 131.5230 88° East 593 682 37,000  Level FlightAware
01:24AM 33.7870 131.7500 88° East 591 680 37,000  Level FlightAware
01:25AM 33.7950 132.0170 88° East 593 682 37,000  Level FlightAware
01:26AM 33.8020 132.2640 88° East 595 685 37,000  Level FlightAware
01:27AM 33.8050 132.3890 88° East 596 686 37,000  Level FlightAware
01:28AM 33.8090 132.5470 88° East 595 685 37,000  Level FlightAware
01:28AM 33.8120 132.6660 88° East 596 686 37,000  Level FlightAware
01:29AM 33.8050 132.7850 94° East 591 680 37,000  Level FlightAware
01:30AM 33.7830 132.9580 99° East 586 674 37,000  Level FlightAware
01:31AM 33.7600 133.1340 99° East 588 677 37,000  Level FlightAware
01:31AM 33.7450 133.2510 99° East 590 679 37,000  Level FlightAware
01:32AM 33.7240 133.4070 99° East 587 676 37,000  Level FlightAware
01:33AM 33.7130 133.5420 96° East 581 669 37,000  Level FlightAware
01:34AM 33.7120 133.6750 90° East 575 662 37,000  Level FlightAware
01:34AM 33.7090 133.8270 91° East 571 657 37,000  Level FlightAware
01:35AM 33.7080 133.9230 91° East 567 652 37,000 -180 Level FlightAware
01:36AM 33.7050 134.0870 91° East 567 652 36,800 -960 Descending FlightAware
01:36AM 33.7030 134.2070 91° East 569 655 35,500 -1,500 Descending FlightAware
01:37AM 33.7000 134.3560 91° East 582 670 34,800 -1,020 Descending FlightAware
01:38AM 33.6980 134.4970 91° East 578 665 34,100 -1,440 Descending FlightAware
01:38AM 33.6950 134.6260 92° East 576 663 32,800 -2,100 Descending FlightAware
01:39AM 33.6930 134.7540 91° East 568 654 31,300 -1,980 Descending FlightAware
01:40AM 33.6900 134.8920 91° East 548 631 30,000 -2,040 Descending FlightAware
01:41AM 33.6980 135.0550 87° East 509 586 27,900 -2,040 Descending FlightAware
01:42AM 33.7400 135.1640 65° Northeast 481 554 26,600 -1,380 Descending FlightAware
01:42AM 33.7820 135.2590 62° Northeast 473 544 26,000 -900 Descending FlightAware
01:43AM 33.8230 135.3530 62° Northeast 476 548 25,400 -1,920 Descending FlightAware
01:44AM 33.8690 135.4570 62° Northeast 478 550 23,300 -2,640 Descending FlightAware
01:44AM 33.9090 135.5480 62° Northeast 468 539 21,700 -2,340 Descending FlightAware
01:45AM 33.9560 135.6530 62° Northeast 461 531 20,000 -2,160 Descending FlightAware
01:46AM 33.9960 135.7440 62° Northeast 450 518 18,700 -1,980 Descending FlightAware
01:46AM 34.0340 135.8300 62° Northeast 431 496 17,400 -2,160 Descending FlightAware
01:47AM 34.0650 135.8890 58° Northeast 416 479 16,200 -2,400 Descending FlightAware
01:47AM 34.0880 135.9100 37° Northeast 404 465 15,600 -2,760 Descending FlightAware
01:48AM 34.1520 135.9530 29° Northeast 402 463 13,700 -2,040 Descending FlightAware
01:49AM 34.2320 136.0050 28° Northeast 401 461 12,600 -1,740 Descending FlightAware
01:49AM 34.2920 136.0460 29° Northeast 373 429 11,100 -1,080 Descending FlightAware
01:50AM 34.3620 136.0930 29° Northeast 367 422 11,100  Level FlightAware
01:51AM 34.4160 136.1310 30° Northeast 356 410 11,100  Level FlightAware
01:51AM 34.4640 136.1650 30° Northeast 356 410 11,100  Level FlightAware
01:52AM 34.5450 136.2190 29° Northeast 368 423 11,100  Level FlightAware
01:53AM 34.6050 136.2610 30° Northeast 364 419 11,100  Level FlightAware
01:54AM 34.6740 136.3070 29° Northeast 362 417 11,100  Level FlightAware
01:54AM 34.7400 136.3520 29° Northeast 350 403 11,100  Level FlightAware
01:55AM 34.7950 136.3670 13° North 346 398 11,100  Level FlightAware
01:56AM 34.8650 136.3810 North 337 388 11,100 -300 Level FlightAware
01:56AM 34.9350 136.3910 North 323 372 10,700 -720 Descending FlightAware
01:57AM 34.9950 136.4000 North 311 358 10,100 -900 Descending FlightAware
01:58AM 35.0390 136.4070 North 311 358 9,700 -900 Descending FlightAware
01:58AM 35.0720 136.4130 North 307 353 9,300 -1,200 Descending FlightAware
01:59AM 35.1160 136.4200 North 306 352 8,600 -1,500 Descending FlightAware
01:59AM 35.1370 136.4220 North 305 351 8,200 -1,800 Descending FlightAware
01:59AM 35.1760 136.4260 North 306 352 7,400 -1,200 Descending FlightAware
02:00AM 35.2200 136.4300 North 294 338 7,100 -300 Descending FlightAware
02:00AM 35.2380 136.4390 22° Northeast 300 345 7,200  Climbing FlightAware
02:00AM 35.2530 136.4580 46° Northeast 287 330 7,100 -240 Descending FlightAware
02:00AM 35.2570 136.4730 72° East 273 314 7,100  Level FlightAware
02:00AM 35.2580 136.4800 80° East 266 306 7,100 -1,200 Level FlightAware
02:01AM 35.2530 136.5150 100° East 248 285 6,500 -1,140 Descending FlightAware
02:01AM 35.2440 136.5550 105° East 238 274 6,100 -780 Descending FlightAware
02:02AM 35.2380 136.5870 103° East 233 268 5,800 -780 Descending FlightAware
02:02AM 35.2300 136.6250 104° East 229 264 5,400 -660 Descending FlightAware
02:03AM 35.2250 136.6510 103° East 222 255 5,200 -360 Descending FlightAware
02:03AM 35.2000 136.6980 123° Southeast 200 230 5,000 -300 Descending FlightAware
02:04AM 35.1830 136.7170 138° Southeast 191 220 4,900 -300 Descending FlightAware
02:04AM 35.1710 136.7260 148° Southeast 180 207 4,800 -300 Descending FlightAware
02:05AM 35.1470 136.7360 161° South 185 213 4,700 -240 Descending FlightAware
02:05AM 35.1270 136.7410 168° South 168 193 4,600 -360 Descending FlightAware
02:06AM 35.1050 136.7460 169° South 153 176 4,400 -420 Descending FlightAware
02:06AM 35.0830 136.7510 169° South 151 174 4,200 -480 Descending FlightAware
02:06AM 35.0660 136.7550 169° South 146 168 4,000 -660 Descending FlightAware
02:07AM 35.0460 136.7600 168° South 134 154 3,600 -780 Descending FlightAware
02:07AM 35.0300 136.7640 168° South 131 151 3,300 -780 Descending FlightAware
02:08AM 35.0110 136.7690 168° South 129 148 2,900 -840 Descending FlightAware
02:08AM 35.0020 136.7710 170° South 136 157 2,700 -780 Descending FlightAware
02:09AM 34.9870 136.7740 171° South 130 150 2,400 -660 Descending FlightAware
02:09AM 34.9700 136.7790 166° South 113 130 2,100 -660 Descending FlightAware
02:09AM 34.9560 136.7820 170° South 116 133 1,800 -660 Descending FlightAware
02:10AM 34.9400 136.7860 168° South 118 136 1,500 -660 Descending FlightAware
02:10AM 34.9240 136.7900 168° South 120 138 1,200 -780 Descending FlightAware
02:11AM 34.9150 136.7920 170° South 130 150 1,000 -720 Descending FlightAware
02:11AM 34.8980 136.7960 169° South 135 155 700 -720 Descending FlightAware
02:11AM 34.8950 136.7960 180° South 135 155 600 -1,200 Descending FlightAware
02:14AM 34.8583 136.8053 168° South  Level Estimated